Terminal Aerodrome Forecast
Issued by NWS Binghamton, NY

Home | Current Version | Previous Version | Text Only | Print | Product List | Glossary On
Versions: 1 2 3 4 5 6 7 8 9 10 11 12 13 14 15 16 17 18 19
000
FTUS41 KBGM 221736
TAFBGM
TAF
KBGM 221736Z 2218/2318 18010KT P6SM SCT009 OVC015
      TEMPO 2218/2222 5SM -SHRA BR OVC009
     FM222200 19007KT P6SM OVC015
      TEMPO 2223/2301 3SM -SHRA BR
     FM230300 23004KT 5SM BR OVC008
     FM230600 30004KT 5SM BR OVC005
     FM231200 32010KT P6SM BKN015
     FM231500 32010KT P6SM SKC=

USA.gov is the U.S. government's official web portal to all federal, state and local government web resources and services.